Western Neb. Rgnl,William B. Heilig Airport Scottsbluff US
ICAO: KBFF
IATA: BFF
Category: Medium
Scheduled Services: Yes

Elevation: 3967 ft
TransAlt. 18000 ft.

Airport Communications:
ASOS:121.025
DENVER CNTR:127.95
COLUMBUS RDO:122.6
CTAF/UNICOM:123

KBFF Zoom In..

Runways:

(A) RW 05 length 8002 ft width 150 ft
---- / hdg 58

(B) RW 12 length 8279 ft width 150 ft
ILS 110.35 / hdg 126

(C) RW 23 length 8002 ft width 150 ft
---- / hdg 238

(D) RW 30 length 8279 ft width 150 ft
ILS 109.30 / hdg 306

Location; KBFF
Day. 29 / Time. 15.53 Zulu
* Altimeter: 30.49
* Temperature: 00° c. 32°f.
* Wind from: 320° Speed 08 kn.
Dewpoint: -11° c.
Visibility: 10 Statute Miles.
Clouds: Clear (automated report).

KBFF 291553Z AUTO 32008KT 10SM CLR 00/M11 A3049 RMK AO2 SLP355 T00001106

Going to: --> -->


Wind From 320°
Speed 08 kn.

 
 
jpsmedia worldairports.se 2020   terms of use